createdAt,value
2019-02-11T07:59:26.504Z,42.1
2019-02-11T08:09:30.170Z,45
2019-02-11T08:19:33.856Z,45.1
2019-02-11T08:29:37.542Z,44.5
2019-02-11T08:39:41.224Z,44.5
2019-02-11T08:49:44.899Z,45
2019-02-11T08:59:48.537Z,45.3
2019-02-11T09:09:52.170Z,45.8
2019-02-11T09:19:55.844Z,46.1
2019-02-11T09:29:59.523Z,46
2019-02-11T09:40:03.189Z,46.2
2019-02-11T09:50:06.868Z,46.7
2019-02-11T10:00:10.522Z,46.8
2019-02-11T10:10:14.180Z,47.1
2019-02-11T10:20:17.834Z,46.8
2019-02-11T10:30:21.506Z,47
2019-02-11T10:40:25.174Z,46.5
2019-02-11T10:50:28.865Z,47
2019-02-11T11:00:32.511Z,47.2
2019-02-11T11:10:36.189Z,47.2
2019-02-11T11:20:39.849Z,46.7
2019-02-11T11:30:43.527Z,46.6
2019-02-11T11:40:47.200Z,49.2
2019-02-11T11:50:50.901Z,49.7
2019-02-11T12:00:54.554Z,48.6
2019-02-11T12:10:58.285Z,48.1
2019-02-11T12:21:02.031Z,47.7
2019-02-11T12:31:05.789Z,47.3
2019-02-11T12:41:09.494Z,46.7
2019-02-11T12:51:13.219Z,44.5
2019-02-11T13:01:16.926Z,49.7
2019-02-11T13:11:20.637Z,47
2019-02-11T13:21:24.284Z,47.8
2019-02-11T13:31:27.885Z,48.9
2019-02-11T13:41:31.416Z,49.8
2019-02-11T13:51:35.002Z,49.2
2019-02-11T14:01:38.556Z,48.2
2019-02-11T14:11:42.129Z,47.7
2019-02-11T14:21:45.659Z,47.2
2019-02-11T14:31:49.331Z,48.7
2019-02-11T14:41:52.883Z,49.3
2019-02-11T14:51:56.405Z,50.7
2019-02-11T15:01:59.920Z,50.6
2019-02-11T15:12:03.410Z,50
2019-02-11T15:22:06.914Z,50.5
2019-02-11T15:32:10.427Z,50.3
2019-02-11T15:42:13.997Z,49.5
2019-02-11T15:52:17.508Z,50
2019-02-11T16:02:21.026Z,49.9
2019-02-11T16:12:24.503Z,49.1
2019-02-11T16:22:27.986Z,49.7
2019-02-11T16:32:31.524Z,50
2019-02-11T16:42:35.059Z,50
2019-02-11T16:52:38.559Z,50.2
2019-02-11T17:02:42.046Z,48.9
2019-02-11T17:12:45.543Z,48.5
2019-02-11T17:22:49.190Z,48.7
2019-02-11T17:32:52.711Z,47.6
2019-02-11T17:42:56.245Z,47.1
2019-02-11T17:52:59.751Z,47.1
2019-02-11T18:03:03.267Z,46.9
2019-02-11T18:13:06.801Z,46.8
2019-02-11T18:23:10.316Z,46.7
2019-02-11T18:33:13.814Z,46.4
2019-02-11T18:43:17.325Z,46.2
2019-02-11T18:53:20.836Z,46
2019-02-11T19:03:24.338Z,46
2019-02-11T19:13:27.823Z,45.9
2019-02-11T19:23:31.363Z,45.8
2019-02-11T19:33:34.888Z,45.7
2019-02-11T19:43:38.380Z,45.5
2019-02-11T19:53:41.892Z,45.6
2019-02-11T20:03:45.411Z,45.4
2019-02-11T20:13:48.914Z,45.2
2019-02-11T20:23:52.440Z,45.3
2019-02-11T20:33:55.955Z,45.2
2019-02-11T20:43:59.464Z,45.1
2019-02-11T20:54:02.982Z,45.1
2019-02-11T21:04:06.557Z,45
2019-02-11T21:14:10.061Z,44.9
2019-02-11T21:24:13.590Z,44.8
2019-02-11T21:34:17.103Z,44.8
2019-02-11T21:44:20.629Z,44.7
2019-02-11T21:54:24.159Z,44.6
2019-02-11T22:04:27.654Z,44.6
2019-02-11T22:14:31.156Z,44.5
2019-02-11T22:24:34.666Z,44.6
2019-02-11T22:34:38.165Z,44.5
2019-02-11T22:44:41.720Z,44.4
2019-02-11T22:54:45.240Z,44.3
2019-02-11T23:04:48.757Z,44.3
2019-02-11T23:14:52.328Z,44.3
2019-02-11T23:24:55.855Z,44.2
2019-02-11T23:34:59.353Z,44.2
2019-02-11T23:45:02.871Z,44.1
2019-02-11T23:55:06.419Z,44.1
